Naiad — WDJ7117 — position and weather

sailwx.info

Track history (hours):
 
Tides and Currents Weather Stations Pressure Air Temp Water Temp Dewpoint Dewpoint Depression Visibility Wind Speed Wind Dir Waves Ship Positions

Naiad

Owner: Miller, Douglas P, Port Orchard, WA. More information available from US FCC via Universal Licensing System and Coast Guard Vessel Documentation Center.

Last reported at 2018-Jul-16 00:21 UTC. Time now 2018-Jul-17 13:21 UTC.
Position N 47°33' W 122°37'.

Length 13 m.

Type: Sailing vessel. MMSI: 366896730.

Date/timePositionNaut miles runAvg speedWind from/ knotsBaromVisibWave heightAir tempDewpointWater temp
2018-Jul-16 00:21N 47°33' W 122°37'2 6.7
2018-Jul-16 00:00N 47°35' W 122°35'8 6.6
2018-Jul-15 22:45N 47°43' W 122°33'2 6.8
2018-Jul-15 22:30N 47°44' W 122°31'3 6.1
2018-Jul-15 22:00N 47°46' W 122°28'3 6.4
2018-Jul-15 21:30N 47°49' W 122°29'3 5.8
2018-Jul-15 21:00N 47°52' W 122°30'2 4.6
2018-Jul-15 20:29N 47°54' W 122°30'1 0.0
2018-Jul-14 21:47N 47°55' W 122°32'1 3.2
2018-Jul-14 21:30N 47°54' W 122°31'3 5.3
2018-Jul-14 21:00N 47°52' W 122°30'3 5.7
2018-Jul-14 20:30N 47°49' W 122°29'3 5.5
2018-Jul-14 20:00N 47°46' W 122°28'2 4.0
2018-Jul-14 19:30N 47°44' W 122°28'2 3.2
2018-Jul-14 18:59N 47°43' W 122°28'2 5.1
2018-Jul-14 18:30N 47°40' W 122°28'3 5.0
2018-Jul-14 18:00N 47°38' W 122°26'2 4.0
2018-Jul-14 17:30N 47°37' W 122°27'2 4.8
2018-Jul-14 17:00N 47°35' W 122°29'3 6.6
2018-Jul-14 16:29N 47°35' W 122°34'  
Track history (hours):
 
Tides and Currents Weather Stations Pressure Air Temp Water Temp Dewpoint Dewpoint Depression Visibility Wind Speed Wind Dir Waves Ship Positions

Naiad

Owner: Miller, Douglas P, Port Orchard, WA. More information available from US FCC via Universal Licensing System and Coast Guard Vessel Documentation Center.

Last reported at 2018-Jul-16 00:21 UTC. Time now 2018-Jul-17 13:21 UTC.
Position N 47°33' W 122°37'.

Length 13 m.

Type: Sailing vessel. MMSI: 366896730.

Date/timePositionNaut miles runAvg speedWind from/ knotsBaromVisibWave heightAir tempDewpointWater temp
2018-Jul-16 00:21N 47°33' W 122°37'2 6.7
2018-Jul-16 00:00N 47°35' W 122°35'8 6.6
2018-Jul-15 22:45N 47°43' W 122°33'2 6.8
2018-Jul-15 22:30N 47°44' W 122°31'3 6.1
2018-Jul-15 22:00N 47°46' W 122°28'3 6.4
2018-Jul-15 21:30N 47°49' W 122°29'3 5.8
2018-Jul-15 21:00N 47°52' W 122°30'2 4.6
2018-Jul-15 20:29N 47°54' W 122°30'1 0.0
2018-Jul-14 21:47N 47°55' W 122°32'1 3.2
2018-Jul-14 21:30N 47°54' W 122°31'3 5.3
2018-Jul-14 21:00N 47°52' W 122°30'3 5.7
2018-Jul-14 20:30N 47°49' W 122°29'3 5.5
2018-Jul-14 20:00N 47°46' W 122°28'2 4.0
2018-Jul-14 19:30N 47°44' W 122°28'2 3.2
2018-Jul-14 18:59N 47°43' W 122°28'2 5.1
2018-Jul-14 18:30N 47°40' W 122°28'3 5.0
2018-Jul-14 18:00N 47°38' W 122°26'2 4.0
2018-Jul-14 17:30N 47°37' W 122°27'2 4.8
2018-Jul-14 17:00N 47°35' W 122°29'3 6.6
2018-Jul-14 16:29N 47°35' W 122°34'  

Dump ship's entire track history